createdAt,value
2023-03-16T00:02:13.197Z,9.58
2023-03-16T00:04:40.798Z,9.55
2023-03-16T00:07:10.924Z,9.68
2023-03-16T00:09:41.375Z,9.53
2023-03-16T00:12:18.900Z,9.58
2023-03-16T00:14:48.438Z,9.52
2023-03-16T00:17:20.550Z,9.46
2023-03-16T00:19:55.336Z,9.37
2023-03-16T00:22:29.449Z,9.52
2023-03-16T00:24:58.005Z,9.74
2023-03-16T00:27:26.708Z,10.01
2023-03-16T00:29:57.675Z,10.12
2023-03-16T00:32:30.354Z,9.85
2023-03-16T00:34:58.775Z,9.74
2023-03-16T00:37:28.341Z,9.92
2023-03-16T00:39:56.635Z,9.79
2023-03-16T00:42:27.893Z,9.87
2023-03-16T00:44:57.384Z,9.81
2023-03-16T00:47:28.545Z,9.73
2023-03-16T00:49:56.924Z,9.60
2023-03-16T00:52:27.358Z,9.86
2023-03-16T00:54:56.547Z,9.60
2023-03-16T00:57:27.779Z,9.58
2023-03-16T00:59:56.356Z,9.77
2023-03-16T01:02:24.787Z,9.78
2023-03-16T01:04:54.858Z,9.80
2023-03-16T01:07:23.013Z,9.86
2023-03-16T01:09:51.586Z,10.15
2023-03-16T01:12:20.506Z,9.90
2023-03-16T01:14:48.303Z,9.84
2023-03-16T01:17:17.722Z,9.83
2023-03-16T01:19:46.542Z,9.98
2023-03-16T01:22:15.670Z,9.90
2023-03-16T01:24:47.261Z,9.79
2023-03-16T01:27:15.224Z,9.85
2023-03-16T01:29:43.739Z,9.91
2023-03-16T01:32:12.281Z,10.00
2023-03-16T01:34:39.900Z,10.13
2023-03-16T01:37:07.860Z,10.16
2023-03-16T01:39:41.392Z,10.20
2023-03-16T01:42:10.404Z,10.51
2023-03-16T01:45:01.605Z,10.44
2023-03-16T01:47:38.466Z,10.28
2023-03-16T01:50:12.427Z,10.19
2023-03-16T01:52:42.306Z,10.07
2023-03-16T01:55:16.189Z,9.99
2023-03-16T01:57:47.389Z,9.95
2023-03-16T02:00:23.381Z,9.90
2023-03-16T02:03:17.187Z,10.04
2023-03-16T02:06:14.883Z,10.19
2023-03-16T02:08:48.627Z,10.18
2023-03-16T02:11:18.547Z,10.26
2023-03-16T02:13:58.896Z,10.19
2023-03-16T02:16:27.279Z,10.24
2023-03-16T02:18:54.825Z,10.20
2023-03-16T02:21:59.536Z,10.11
2023-03-16T02:24:27.242Z,10.03
2023-03-16T02:27:04.696Z,10.15
2023-03-16T02:29:56.784Z,10.36
2023-03-16T02:32:30.015Z,10.72
2023-03-16T02:35:00.226Z,11.50
2023-03-16T02:37:28.173Z,11.14
2023-03-16T02:39:55.749Z,10.67
2023-03-16T02:42:26.576Z,10.65
2023-03-16T02:44:59.472Z,10.51
2023-03-16T02:47:42.109Z,10.65
2023-03-16T02:50:11.267Z,10.34
2023-03-16T02:52:39.771Z,9.87
2023-03-16T02:55:11.813Z,9.88
2023-03-16T02:57:39.283Z,10.02
2023-03-16T03:00:17.227Z,9.93
2023-03-16T03:02:47.052Z,9.62
2023-03-16T03:05:17.687Z,9.41
2023-03-16T03:07:45.180Z,9.40
2023-03-16T03:10:13.852Z,9.68
2023-03-16T03:12:41.412Z,9.35
2023-03-16T03:15:11.983Z,9.52
2023-03-16T03:17:51.064Z,9.43
2023-03-16T03:20:19.606Z,9.77
2023-03-16T03:22:50.019Z,9.60
2023-03-16T03:25:19.146Z,9.36
2023-03-16T03:27:48.856Z,9.56
2023-03-16T03:30:24.500Z,9.64
2023-03-16T03:32:54.881Z,9.52
2023-03-16T03:35:23.236Z,9.41
2023-03-16T03:37:51.358Z,9.34
2023-03-16T03:40:20.962Z,9.26
2023-03-16T03:42:52.936Z,9.19
2023-03-16T03:45:20.690Z,9.17
2023-03-16T03:47:48.317Z,9.04
2023-03-16T03:50:20.131Z,8.91
2023-03-16T03:53:10.346Z,8.85
2023-03-16T03:55:54.687Z,8.83
2023-03-16T03:58:22.223Z,8.76
2023-03-16T04:00:49.713Z,8.60
2023-03-16T04:03:17.755Z,8.67
2023-03-16T04:05:46.296Z,8.69
2023-03-16T04:08:13.830Z,8.49
2023-03-16T04:10:41.264Z,8.50
2023-03-16T04:13:08.889Z,8.48
2023-03-16T04:15:38.588Z,8.34
2023-03-16T04:18:19.874Z,8.37
2023-03-16T04:20:47.418Z,8.36
2023-03-16T04:23:19.444Z,8.41
2023-03-16T04:25:50.254Z,8.49
2023-03-16T04:28:19.855Z,8.47
2023-03-16T04:30:54.415Z,8.34
2023-03-16T04:33:37.932Z,8.31
2023-03-16T04:36:07.924Z,8.25
2023-03-16T04:38:37.914Z,8.26
2023-03-16T04:41:07.210Z,8.00
2023-03-16T04:43:39.035Z,7.93
2023-03-16T04:46:20.039Z,7.91
2023-03-16T04:48:47.594Z,7.74
2023-03-16T04:51:15.457Z,7.99
2023-03-16T04:53:52.005Z,7.91
2023-03-16T04:56:25.353Z,7.85
2023-03-16T04:58:58.076Z,7.94
2023-03-16T05:01:29.438Z,7.79
2023-03-16T05:03:59.933Z,8.08
2023-03-16T05:06:29.185Z,8.01
2023-03-16T05:09:00.993Z,7.96
2023-03-16T05:11:29.234Z,7.86
2023-03-16T05:14:00.092Z,7.77
2023-03-16T05:16:28.552Z,7.75
2023-03-16T05:18:59.664Z,7.62
2023-03-16T05:21:32.178Z,7.58
2023-03-16T05:24:08.338Z,7.53
2023-03-16T05:26:36.198Z,7.65
2023-03-16T05:29:06.119Z,7.74
2023-03-16T05:31:34.016Z,7.69
2023-03-16T05:34:03.941Z,7.53
2023-03-16T05:36:32.755Z,7.40
2023-03-16T05:39:08.492Z,7.61
2023-03-16T05:41:39.421Z,7.50
2023-03-16T05:44:17.246Z,7.47
2023-03-16T05:47:04.179Z,7.49
2023-03-16T05:49:33.918Z,7.59
2023-03-16T05:52:04.289Z,7.68
2023-03-16T05:54:33.954Z,7.65
2023-03-16T05:57:01.662Z,7.69
2023-03-16T05:59:29.423Z,7.58
2023-03-16T06:01:58.490Z,7.41
2023-03-16T06:04:27.154Z,7.64
2023-03-16T06:06:54.768Z,7.59
2023-03-16T06:09:26.153Z,7.47
2023-03-16T06:11:55.137Z,7.52
2023-03-16T06:14:24.008Z,7.49
2023-03-16T06:16:53.530Z,7.51
2023-03-16T06:19:21.749Z,7.59
2023-03-16T06:21:54.116Z,7.68
2023-03-16T06:24:21.647Z,7.64
2023-03-16T06:26:49.119Z,7.69
2023-03-16T06:29:17.748Z,7.73
2023-03-16T06:31:45.866Z,7.56
2023-03-16T06:34:13.370Z,7.64
2023-03-16T06:36:41.640Z,7.74
2023-03-16T06:39:14.397Z,7.51
2023-03-16T06:41:44.183Z,7.71
2023-03-16T06:44:14.153Z,7.49
2023-03-16T06:46:52.372Z,7.56
2023-03-16T06:49:19.889Z,7.57
2023-03-16T06:51:47.372Z,7.61
2023-03-16T06:54:15.296Z,7.62
2023-03-16T06:56:45.231Z,7.66
2023-03-16T06:59:13.819Z,7.62
2023-03-16T07:01:42.284Z,7.67
2023-03-16T07:04:09.984Z,7.82
2023-03-16T07:06:40.109Z,7.87
2023-03-16T07:09:08.789Z,7.89
2023-03-16T07:11:36.503Z,7.85
2023-03-16T07:14:04.088Z,8.05
2023-03-16T07:16:33.385Z,7.73
2023-03-16T07:19:03.978Z,7.76
2023-03-16T07:21:39.208Z,7.60
2023-03-16T07:24:11.174Z,7.77
2023-03-16T07:26:43.257Z,7.76
2023-03-16T07:29:14.487Z,7.75
2023-03-16T07:31:42.842Z,7.85
2023-03-16T07:34:15.817Z,7.88
2023-03-16T07:36:49.509Z,8.01
2023-03-16T07:39:17.865Z,7.89
2023-03-16T07:41:46.865Z,8.00
2023-03-16T07:44:16.824Z,8.00
2023-03-16T07:46:48.406Z,7.99
2023-03-16T07:49:16.853Z,8.25
2023-03-16T07:51:45.674Z,8.07
2023-03-16T07:54:14.067Z,8.09
2023-03-16T07:56:48.880Z,8.12
2023-03-16T07:59:27.136Z,8.15
2023-03-16T08:01:54.907Z,8.34
2023-03-16T08:04:22.466Z,8.33
2023-03-16T08:07:00.272Z,8.25
2023-03-16T08:09:35.910Z,8.43
2023-03-16T08:12:08.509Z,8.23
2023-03-16T08:14:37.268Z,8.50
2023-03-16T08:17:15.483Z,8.57
2023-03-16T08:19:44.313Z,8.58
2023-03-16T08:22:12.502Z,8.69
2023-03-16T08:24:43.811Z,8.79
2023-03-16T08:27:13.325Z,8.83
2023-03-16T08:29:44.731Z,8.87
2023-03-16T08:32:16.228Z,9.25
2023-03-16T08:34:46.036Z,9.15
2023-03-16T08:37:16.692Z,9.10
2023-03-16T08:39:46.150Z,9.20
2023-03-16T08:42:17.373Z,9.41
2023-03-16T08:44:49.377Z,9.44
2023-03-16T08:47:19.580Z,9.67
2023-03-16T08:49:47.249Z,9.93
2023-03-16T08:52:16.731Z,10.01
2023-03-16T08:54:59.831Z,10.38
2023-03-16T08:57:29.704Z,10.40
2023-03-16T08:59:57.260Z,10.32
2023-03-16T09:02:25.736Z,10.56
2023-03-16T09:04:53.604Z,10.53
2023-03-16T09:07:21.176Z,10.51
2023-03-16T09:09:48.713Z,10.48
2023-03-16T09:12:16.220Z,10.46
2023-03-16T09:14:43.699Z,10.54
2023-03-16T09:17:11.851Z,10.55
2023-03-16T09:19:51.206Z,10.72
2023-03-16T09:22:21.281Z,10.79
2023-03-16T09:24:51.307Z,10.89
2023-03-16T09:27:20.740Z,11.17
2023-03-16T09:29:50.802Z,10.90
2023-03-16T09:32:18.547Z,10.88
2023-03-16T09:34:46.126Z,10.82
2023-03-16T09:37:14.550Z,10.94
2023-03-16T09:39:42.040Z,10.86
2023-03-16T09:42:30.822Z,11.05
2023-03-16T09:45:17.300Z,11.08
2023-03-16T09:47:48.549Z,11.33
2023-03-16T09:50:35.278Z,11.59
2023-03-16T09:53:27.827Z,11.44
2023-03-16T09:56:20.565Z,11.62
2023-03-16T09:58:48.039Z,11.65
2023-03-16T10:01:21.122Z,11.83
2023-03-16T10:04:29.278Z,11.93
2023-03-16T10:07:11.396Z,11.81
2023-03-16T10:09:54.908Z,12.06
2023-03-16T10:12:32.379Z,11.88
2023-03-16T10:15:13.573Z,11.67
2023-03-16T10:18:02.119Z,11.98
2023-03-16T10:20:34.525Z,12.12
2023-03-16T10:23:17.989Z,12.46
2023-03-16T10:25:51.812Z,12.20
2023-03-16T10:28:26.236Z,12.42
2023-03-16T10:30:59.314Z,12.82
2023-03-16T10:33:36.631Z,12.86
2023-03-16T10:36:14.296Z,12.98
2023-03-16T10:38:42.953Z,12.70
2023-03-16T10:41:22.370Z,12.76
2023-03-16T10:43:58.099Z,12.95
2023-03-16T10:46:28.458Z,12.84
2023-03-16T10:49:02.224Z,12.93
2023-03-16T10:51:36.199Z,12.87
2023-03-16T10:54:17.943Z,12.74
2023-03-16T10:56:46.123Z,12.70
2023-03-16T10:59:32.831Z,12.68
2023-03-16T11:02:17.878Z,12.99
2023-03-16T11:04:46.245Z,12.93
2023-03-16T11:07:25.675Z,12.97
2023-03-16T11:09:54.849Z,12.93
2023-03-16T11:12:28.950Z,13.18
2023-03-16T11:15:23.671Z,12.92
2023-03-16T11:17:54.714Z,12.99
2023-03-16T11:20:28.708Z,13.21
2023-03-16T11:22:56.992Z,13.11
2023-03-16T11:25:50.068Z,13.11
2023-03-16T11:29:01.776Z,13.14
2023-03-16T11:32:15.345Z,13.18
2023-03-16T11:34:43.558Z,13.24
2023-03-16T11:37:52.728Z,13.13
2023-03-16T11:40:38.533Z,12.94
2023-03-16T11:43:55.453Z,12.96
2023-03-16T11:46:42.208Z,13.08
2023-03-16T11:49:51.963Z,13.03
2023-03-16T11:53:18.442Z,13.13
2023-03-16T11:56:08.655Z,13.16
2023-03-16T11:59:30.537Z,13.19
2023-03-16T12:02:45.440Z,12.99
2023-03-16T12:05:55.284Z,13.07
2023-03-16T12:08:40.780Z,13.11
2023-03-16T12:11:31.219Z,13.21
2023-03-16T12:14:35.015Z,13.17
2023-03-16T12:17:23.786Z,13.06
2023-03-16T12:20:17.485Z,13.09
2023-03-16T12:23:14.446Z,12.81
2023-03-16T12:25:46.168Z,12.55
2023-03-16T12:28:26.714Z,12.62
2023-03-16T12:30:59.183Z,12.59
2023-03-16T12:33:55.330Z,12.51
2023-03-16T12:37:06.135Z,12.46
2023-03-16T12:39:45.813Z,12.49
2023-03-16T12:43:16.955Z,12.23
2023-03-16T12:46:12.026Z,12.46
2023-03-16T12:48:45.642Z,12.55
2023-03-16T12:51:13.151Z,12.83
2023-03-16T12:53:54.728Z,12.42
2023-03-16T12:56:35.301Z,12.52
2023-03-16T12:59:10.085Z,12.24
2023-03-16T13:01:46.188Z,12.12
2023-03-16T13:04:33.787Z,12.26
2023-03-16T13:07:24.387Z,12.07
2023-03-16T13:10:14.662Z,12.21
2023-03-16T13:12:43.801Z,12.30
2023-03-16T13:15:21.394Z,12.18
2023-03-16T13:18:02.929Z,12.17
2023-03-16T13:20:51.123Z,12.18
2023-03-16T13:23:18.529Z,12.24
2023-03-16T13:26:16.999Z,12.12
2023-03-16T13:28:54.372Z,12.24
2023-03-16T13:31:36.033Z,12.11
2023-03-16T13:34:06.096Z,12.35
2023-03-16T13:36:37.109Z,12.04
2023-03-16T13:39:23.692Z,11.88
2023-03-16T13:42:24.836Z,12.09
2023-03-16T13:44:58.557Z,11.92
2023-03-16T13:47:28.174Z,11.89
2023-03-16T13:50:00.181Z,11.77
2023-03-16T13:52:31.672Z,11.94
2023-03-16T13:55:01.965Z,12.01
2023-03-16T13:57:37.029Z,11.76
2023-03-16T14:00:25.645Z,11.88
2023-03-16T14:02:59.327Z,11.57
2023-03-16T14:05:35.253Z,11.51
2023-03-16T14:08:04.982Z,11.39
2023-03-16T14:10:36.127Z,11.10
2023-03-16T14:13:42.890Z,11.00
2023-03-16T14:16:18.647Z,10.82
2023-03-16T14:18:57.757Z,11.15
2023-03-16T14:21:31.446Z,10.79
2023-03-16T14:24:02.090Z,10.86
2023-03-16T14:26:45.032Z,10.61
2023-03-16T14:29:31.775Z,10.61
2023-03-16T14:32:00.479Z,10.57
2023-03-16T14:34:35.532Z,10.66
2023-03-16T14:37:15.882Z,10.34
2023-03-16T14:39:43.888Z,10.49
2023-03-16T14:42:30.622Z,10.48
2023-03-16T14:45:00.944Z,10.30
2023-03-16T14:47:32.198Z,10.19
2023-03-16T14:50:08.639Z,10.28
2023-03-16T14:52:37.272Z,10.15
2023-03-16T14:55:17.105Z,10.21
2023-03-16T14:57:45.526Z,9.87
2023-03-16T15:00:17.228Z,10.01
2023-03-16T15:03:10.299Z,9.81
2023-03-16T15:05:46.615Z,9.90
2023-03-16T15:08:27.397Z,9.87
2023-03-16T15:11:05.945Z,9.84
2023-03-16T15:13:42.265Z,9.68
2023-03-16T15:16:14.463Z,9.86
2023-03-16T15:18:42.887Z,9.68
2023-03-16T15:21:15.491Z,9.64
2023-03-16T15:23:44.845Z,9.72
2023-03-16T15:26:15.119Z,9.78
2023-03-16T15:28:42.976Z,9.61
2023-03-16T15:31:14.479Z,9.53
2023-03-16T15:33:42.861Z,9.64
2023-03-16T15:36:19.762Z,9.69
2023-03-16T15:38:53.282Z,9.33
2023-03-16T15:41:21.361Z,9.48
2023-03-16T15:43:49.174Z,9.47
2023-03-16T15:46:16.936Z,9.52
2023-03-16T15:48:45.745Z,9.55
2023-03-16T15:51:25.782Z,9.57
2023-03-16T15:54:00.421Z,9.38
2023-03-16T15:56:41.231Z,9.37
2023-03-16T15:59:17.342Z,9.36
2023-03-16T16:01:48.486Z,9.45
2023-03-16T16:04:20.066Z,9.36
2023-03-16T16:06:49.347Z,9.29
2023-03-16T16:09:18.623Z,9.14
2023-03-16T16:11:49.086Z,9.18
2023-03-16T16:14:23.037Z,9.23
2023-03-16T16:16:50.626Z,9.17
2023-03-16T16:19:18.909Z,9.23
2023-03-16T16:21:48.031Z,9.22
2023-03-16T16:24:20.723Z,9.17
2023-03-16T16:26:54.141Z,9.28
2023-03-16T16:29:28.174Z,9.13
2023-03-16T16:31:55.921Z,9.01
2023-03-16T16:34:25.697Z,9.01
2023-03-16T16:36:54.999Z,8.67
2023-03-16T16:39:25.467Z,8.87
2023-03-16T16:41:57.126Z,8.72
2023-03-16T16:44:32.022Z,8.76
2023-03-16T16:47:03.475Z,8.59
2023-03-16T16:49:35.441Z,8.49
2023-03-16T16:52:04.923Z,8.73
2023-03-16T16:54:35.468Z,8.62
2023-03-16T16:57:05.638Z,8.55
2023-03-16T16:59:37.611Z,8.64
2023-03-16T17:02:29.420Z,8.72
2023-03-16T17:04:57.183Z,8.63
2023-03-16T17:07:26.320Z,8.53
2023-03-16T17:09:53.809Z,8.52
2023-03-16T17:12:26.079Z,8.61
2023-03-16T17:14:55.069Z,8.39
2023-03-16T17:17:22.632Z,8.33
2023-03-16T17:19:50.211Z,8.27
2023-03-16T17:22:30.307Z,8.36
2023-03-16T17:24:58.912Z,8.41
2023-03-16T17:27:32.229Z,8.35
2023-03-16T17:30:05.452Z,8.26
2023-03-16T17:32:34.199Z,8.18
2023-03-16T17:35:01.784Z,8.30
2023-03-16T17:37:31.394Z,8.26
2023-03-16T17:40:00.986Z,8.45
2023-03-16T17:42:28.630Z,8.29
2023-03-16T17:44:58.056Z,8.27
2023-03-16T17:47:28.638Z,8.00
2023-03-16T17:49:57.242Z,8.35
2023-03-16T17:52:29.167Z,8.03
2023-03-16T17:54:58.380Z,8.07
2023-03-16T17:57:32.126Z,7.89
2023-03-16T18:00:05.276Z,7.82
2023-03-16T18:02:58.033Z,7.86
2023-03-16T18:05:29.990Z,8.18
2023-03-16T18:08:22.321Z,8.04
2023-03-16T18:11:14.479Z,7.95
2023-03-16T18:13:42.459Z,7.75
2023-03-16T18:16:19.990Z,7.90
2023-03-16T18:18:48.852Z,7.96
2023-03-16T18:21:27.202Z,7.92
2023-03-16T18:23:57.147Z,7.81
2023-03-16T18:26:48.693Z,7.86
2023-03-16T18:29:18.840Z,7.76
2023-03-16T18:32:08.761Z,8.08
2023-03-16T18:34:46.666Z,7.92
2023-03-16T18:37:23.854Z,7.97
2023-03-16T18:39:57.674Z,7.89
2023-03-16T18:42:28.198Z,8.10
2023-03-16T18:45:21.223Z,7.85
2023-03-16T18:47:57.036Z,7.80
2023-03-16T18:50:34.215Z,7.91
2023-03-16T18:53:02.358Z,8.33
2023-03-16T18:55:31.819Z,8.06
2023-03-16T18:58:03.496Z,8.16
2023-03-16T19:00:35.698Z,8.31
2023-03-16T19:03:03.694Z,8.27
2023-03-16T19:05:37.931Z,8.13
2023-03-16T19:08:10.153Z,8.05
2023-03-16T19:10:49.497Z,7.83
2023-03-16T19:13:21.588Z,8.27
2023-03-16T19:15:53.479Z,7.91
2023-03-16T19:18:26.107Z,7.91
2023-03-16T19:20:55.684Z,7.86
2023-03-16T19:23:36.550Z,8.21
2023-03-16T19:26:06.907Z,7.91
2023-03-16T19:28:41.079Z,8.08
2023-03-16T19:31:29.880Z,7.92
2023-03-16T19:34:06.616Z,8.39
2023-03-16T19:36:34.568Z,7.87
2023-03-16T19:39:03.357Z,8.34
2023-03-16T19:41:42.515Z,8.12
2023-03-16T19:44:23.012Z,7.84
2023-03-16T19:46:52.925Z,7.53
2023-03-16T19:49:28.075Z,7.48
2023-03-16T19:51:58.178Z,7.58
2023-03-16T19:54:33.483Z,8.08
2023-03-16T19:57:12.444Z,8.35
2023-03-16T19:59:41.812Z,8.47
2023-03-16T20:02:40.934Z,8.33
2023-03-16T20:05:15.938Z,8.46
2023-03-16T20:07:47.842Z,8.22
2023-03-16T20:10:25.392Z,8.09
2023-03-16T20:13:04.260Z,7.76
2023-03-16T20:15:34.033Z,8.20
2023-03-16T20:18:03.257Z,8.33
2023-03-16T20:20:34.470Z,8.27
2023-03-16T20:23:04.999Z,7.94
2023-03-16T20:25:36.176Z,7.92
2023-03-16T20:28:27.572Z,7.89
2023-03-16T20:30:56.622Z,8.11
2023-03-16T20:33:26.276Z,7.93
2023-03-16T20:35:54.499Z,8.05
2023-03-16T20:38:23.068Z,8.52
2023-03-16T20:40:54.364Z,7.92
2023-03-16T20:43:32.354Z,7.62
2023-03-16T20:46:04.068Z,7.58
2023-03-16T20:48:35.452Z,7.92
2023-03-16T20:51:06.037Z,7.59
2023-03-16T20:53:38.749Z,7.51
2023-03-16T20:56:25.390Z,7.40
2023-03-16T20:58:56.173Z,7.75
2023-03-16T21:01:24.820Z,7.85
2023-03-16T21:03:55.519Z,7.48
2023-03-16T21:06:38.767Z,7.68
2023-03-16T21:09:08.958Z,7.68
2023-03-16T21:11:42.480Z,7.52
2023-03-16T21:14:33.445Z,7.39
2023-03-16T21:17:01.760Z,7.61
2023-03-16T21:19:29.547Z,7.72
2023-03-16T21:21:59.770Z,7.65
2023-03-16T21:24:28.453Z,7.51
2023-03-16T21:27:16.119Z,7.87
2023-03-16T21:29:45.295Z,7.56
2023-03-16T21:32:26.479Z,7.25
2023-03-16T21:34:57.934Z,7.31
2023-03-16T21:37:30.613Z,7.46
2023-03-16T21:42:39.895Z,7.14
2023-03-16T21:45:08.071Z,7.26
2023-03-16T21:47:38.255Z,6.85
2023-03-16T21:50:33.981Z,7.06
2023-03-16T21:53:04.751Z,6.99
2023-03-16T21:55:33.181Z,6.72
2023-03-16T21:58:04.494Z,7.28
2023-03-16T22:00:35.550Z,6.78
2023-03-16T22:03:06.429Z,6.95
2023-03-16T22:05:40.618Z,7.30
2023-03-16T22:08:16.433Z,7.23
2023-03-16T22:10:45.930Z,7.21
2023-03-16T22:13:13.877Z,7.31
2023-03-16T22:15:51.182Z,7.12
2023-03-16T22:18:34.965Z,6.65
2023-03-16T22:21:22.975Z,6.98
2023-03-16T22:23:50.723Z,6.72
2023-03-16T22:26:22.440Z,7.06
2023-03-16T22:28:54.210Z,6.95
2023-03-16T22:31:35.430Z,7.00
2023-03-16T22:34:05.481Z,7.22
2023-03-16T22:36:34.085Z,7.05
2023-03-16T22:39:08.786Z,7.08
2023-03-16T22:41:36.367Z,6.70
2023-03-16T22:44:04.117Z,6.88
2023-03-16T22:46:31.834Z,6.64
2023-03-16T22:48:59.386Z,6.46
2023-03-16T22:51:33.305Z,6.78
2023-03-16T22:54:08.644Z,6.66
2023-03-16T22:56:36.694Z,6.40
2023-03-16T22:59:13.656Z,6.66
2023-03-16T23:01:44.316Z,6.54
2023-03-16T23:04:30.540Z,6.51
2023-03-16T23:06:59.462Z,6.39
2023-03-16T23:09:26.978Z,6.45
2023-03-16T23:11:56.660Z,6.63
2023-03-16T23:14:29.315Z,6.56
2023-03-16T23:16:57.327Z,6.70
2023-03-16T23:19:35.425Z,6.66
2023-03-16T23:22:06.075Z,6.58
2023-03-16T23:24:35.086Z,6.66
2023-03-16T23:27:04.361Z,6.78
2023-03-16T23:29:35.088Z,6.65
2023-03-16T23:32:04.455Z,6.82
2023-03-16T23:34:32.149Z,6.73
2023-03-16T23:36:59.614Z,6.93
2023-03-16T23:39:28.442Z,6.97
2023-03-16T23:41:56.413Z,6.64
2023-03-16T23:44:28.301Z,6.58
2023-03-16T23:46:56.097Z,6.36
2023-03-16T23:49:27.987Z,6.33
2023-03-16T23:51:58.632Z,6.71
2023-03-16T23:54:30.707Z,6.39
2023-03-16T23:56:58.624Z,6.39
2023-03-16T23:59:27.840Z,6.44
